Time;durP1;ratioP1;P1;durP2;ratioP2;P2;SDS_P1;SDS_P2;PMS_P1;PMS_P2;Temp;Humidity;BMP_temperature;BMP_pressure;BME280_temperature;BME280_humidity;BME280_pressure;Samples;Min_cycle;Max_cycle;Signal;HPM_P1;HPM_P2
2023/08/08 00:01:06;;;;;;;4.53;2.35;;;29.60;99.90;;;;;;5084354;28;20027;-50
2023/08/08 00:03:34;;;;;;;3.25;1.90;;;29.60;99.90;;;;;;5084267;28;20025;-56
2023/08/08 00:06:01;;;;;;;2.03;1.40;;;29.60;99.90;;;;;;5084809;28;20032;-52
2023/08/08 00:08:28;;;;;;;4.03;1.35;;;29.50;99.90;;;;;;5084268;28;20087;-51
2023/08/08 00:10:57;;;;;;;3.08;1.10;;;29.50;99.90;;;;;;5084585;28;20178;-49
2023/08/08 00:13:30;;;;;;;4.82;0.90;;;29.40;99.90;;;;;;5084460;28;20024;-52
2023/08/08 00:15:56;;;;;;;2.33;0.85;;;29.40;99.90;;;;;;5084649;28;20224;-51
2023/08/08 00:18:23;;;;;;;3.90;1.13;;;29.40;99.90;;;;;;5083872;28;20092;-49
2023/08/08 00:20:50;;;;;;;3.25;0.90;;;29.40;99.90;;;;;;5082725;28;20021;-51
2023/08/08 00:23:17;;;;;;;9.45;1.42;;;29.40;99.90;;;;;;5085647;28;20016;-52
2023/08/08 00:25:43;;;;;;;3.72;1.00;;;29.40;99.90;;;;;;5097212;28;20055;-53
2023/08/08 00:28:10;;;;;;;4.15;0.82;;;29.40;99.90;;;;;;5105111;28;20450;-56
2023/08/08 00:30:37;;;;;;;2.08;0.80;;;29.40;99.90;;;;;;5102808;28;20024;-53
2023/08/08 00:33:04;;;;;;;1.48;0.90;;;29.30;99.90;;;;;;5102744;28;20031;-56
2023/08/08 00:35:30;;;;;;;3.25;0.70;;;29.40;99.90;;;;;;5103374;28;20040;-55
2023/08/08 00:38:01;;;;;;;4.32;0.77;;;29.40;99.90;;;;;;5100095;28;20028;-50
2023/08/08 00:40:27;;;;;;;3.95;1.10;;;29.30;99.90;;;;;;5117280;28;20027;-55
2023/08/08 00:42:54;;;;;;;3.00;0.80;;;29.30;99.90;;;;;;5117824;28;20019;-55
2023/08/08 00:45:21;;;;;;;4.38;0.70;;;29.30;99.90;;;;;;5107437;28;20045;-56
2023/08/08 00:47:47;;;;;;;2.83;0.88;;;29.30;99.90;;;;;;5108460;28;20026;-54
2023/08/08 00:50:14;;;;;;;1.25;0.60;;;29.20;99.90;;;;;;5104586;28;20091;-57
2023/08/08 00:52:43;;;;;;;1.73;0.60;;;29.20;99.90;;;;;;5104322;28;20020;-51
2023/08/08 00:55:10;;;;;;;1.05;0.50;;;29.10;99.90;;;;;;5104328;28;20036;-54
2023/08/08 00:57:38;;;;;;;2.38;0.52;;;29.10;99.90;;;;;;5106823;28;20027;-56
2023/08/08 01:00:11;;;;;;;3.75;0.70;;;29.10;99.90;;;;;;5097867;28;20035;-56
2023/08/08 01:02:39;;;;;;;1.95;0.60;;;29.10;99.90;;;;;;5087859;28;20126;-53
2023/08/08 01:05:08;;;;;;;3.92;0.80;;;29.10;99.90;;;;;;5097697;28;20339;-59
2023/08/08 01:07:40;;;;;;;2.08;0.55;;;29.00;99.90;;;;;;5083757;28;20321;-48
2023/08/08 01:10:15;;;;;;;2.15;0.55;;;29.10;99.90;;;;;;5086001;28;20252;-52
2023/08/08 01:12:52;;;;;;;2.45;0.50;;;29.10;99.90;;;;;;5095811;28;20024;-53
2023/08/08 01:15:20;;;;;;;4.13;0.50;;;29.10;99.90;;;;;;5104041;28;20115;-50
2023/08/08 01:17:47;;;;;;;1.75;0.60;;;29.00;99.90;;;;;;5103769;28;20028;-51
2023/08/08 01:20:18;;;;;;;1.23;0.40;;;29.10;99.90;;;;;;5104260;28;20288;-46
2023/08/08 01:23:03;;;;;;;2.70;0.70;;;29.00;99.90;;;;;;5086252;28;20024;-54
2023/08/08 01:25:32;;;;;;;3.42;0.47;;;29.00;99.90;;;;;;5104083;28;20093;-50
2023/08/08 01:27:59;;;;;;;3.05;0.73;;;29.00;99.90;;;;;;5103787;28;20031;-56
2023/08/08 01:30:25;;;;;;;6.13;0.80;;;29.00;99.90;;;;;;5089029;28;20028;-53
2023/08/08 01:32:55;;;;;;;2.97;0.75;;;28.90;99.90;;;;;;5099706;28;20024;-53
2023/08/08 01:35:23;;;;;;;2.30;0.70;;;29.00;99.90;;;;;;5111107;28;20046;-49
2023/08/08 01:38:27;;;;;;;3.45;0.80;;;28.90;99.90;;;;;;5101952;28;20039;-50
2023/08/08 01:40:57;;;;;;;1.50;0.75;;;28.90;99.90;;;;;;5092574;28;20325;-51
2023/08/08 01:43:25;;;;;;;1.30;0.65;;;28.90;99.90;;;;;;5069108;28;20028;-51
2023/08/08 01:45:56;;;;;;;4.10;0.73;;;28.90;99.90;;;;;;5069197;28;20348;-51
2023/08/08 01:48:23;;;;;;;3.42;0.90;;;28.90;99.90;;;;;;5088164;28;20030;-57
2023/08/08 01:50:52;;;;;;;1.98;0.55;;;28.90;99.90;;;;;;5093538;28;20099;-54
2023/08/08 01:53:19;;;;;;;4.90;0.70;;;29.00;99.90;;;;;;5100518;28;20027;-58
2023/08/08 01:55:46;;;;;;;4.85;0.73;;;28.90;99.90;;;;;;5090745;28;20040;-53
2023/08/08 01:58:15;;;;;;;1.75;0.70;;;28.90;99.90;;;;;;5086547;28;20074;-52
2023/08/08 02:00:43;;;;;;;5.13;0.70;;;28.90;99.90;;;;;;5087111;28;20029;-53
2023/08/08 02:03:11;;;;;;;2.25;0.90;;;28.90;99.90;;;;;;5101744;28;20086;-54
2023/08/08 02:05:38;;;;;;;3.33;0.80;;;28.90;99.90;;;;;;5101496;28;20032;-57
2023/08/08 02:08:05;;;;;;;6.55;1.17;;;28.90;99.90;;;;;;5106924;28;20020;-50
2023/08/08 02:10:32;;;;;;;2.80;0.65;;;28.90;99.90;;;;;;5095072;28;20024;-54
2023/08/08 02:13:04;;;;;;;7.05;1.25;;;28.90;99.90;;;;;;5095880;28;20028;-52
2023/08/08 02:15:31;;;;;;;4.57;0.95;;;28.90;99.90;;;;;;5099079;28;20024;-52
2023/08/08 02:18:00;;;;;;;4.35;0.80;;;28.80;99.90;;;;;;5107085;28;20035;-50
2023/08/08 02:20:27;;;;;;;2.20;0.55;;;28.80;99.90;;;;;;5102900;28;20031;-50
2023/08/08 02:22:56;;;;;;;2.53;0.80;;;28.80;99.90;;;;;;5086454;28;20082;-53
2023/08/08 02:25:23;;;;;;;3.65;0.60;;;28.80;99.90;;;;;;5091483;28;20051;-52
2023/08/08 02:27:50;;;;;;;4.28;0.65;;;28.80;99.90;;;;;;5094558;28;20012;-55
2023/08/08 02:30:18;;;;;;;4.85;0.63;;;28.80;99.90;;;;;;5068525;28;20025;-50
2023/08/08 02:32:49;;;;;;;1.50;0.60;;;28.80;99.90;;;;;;5102003;28;20275;-55
2023/08/08 02:35:16;;;;;;;2.53;0.70;;;28.80;99.90;;;;;;5081885;28;20055;-55
2023/08/08 02:37:43;;;;;;;2.03;0.70;;;28.80;99.90;;;;;;5106429;28;20020;-54
2023/08/08 02:40:11;;;;;;;3.97;0.90;;;28.70;99.90;;;;;;5070352;28;20266;-54
2023/08/08 02:42:39;;;;;;;4.45;1.35;;;28.70;99.90;;;;;;5105137;28;20065;-53
2023/08/08 02:45:07;;;;;;;2.97;1.20;;;28.70;99.90;;;;;;5088145;28;20044;-54
2023/08/08 02:47:34;;;;;;;4.25;0.98;;;28.70;99.90;;;;;;5103174;28;20016;-56
2023/08/08 02:50:02;;;;;;;4.25;0.63;;;28.70;99.90;;;;;;5110206;28;20016;-55
2023/08/08 02:52:29;;;;;;;4.35;0.95;;;28.70;99.90;;;;;;5097645;28;20031;-52
2023/08/08 02:54:56;;;;;;;5.93;1.00;;;28.80;99.90;;;;;;5091360;28;20047;-54
2023/08/08 02:57:23;;;;;;;3.65;0.90;;;28.80;99.90;;;;;;5067348;28;20032;-57
2023/08/08 02:59:49;;;;;;;10.23;1.02;;;28.80;99.90;;;;;;5071205;28;20040;-53
2023/08/08 03:02:16;;;;;;;3.72;1.00;;;28.70;99.90;;;;;;5094324;28;20063;-56
2023/08/08 03:04:45;;;;;;;2.55;0.90;;;28.80;99.90;;;;;;5086123;28;20028;-58
2023/08/08 03:07:14;;;;;;;5.32;1.02;;;28.70;99.90;;;;;;5119469;28;20026;-47
2023/08/08 03:09:41;;;;;;;3.03;0.70;;;28.70;99.90;;;;;;5126039;28;20095;-52
2023/08/08 03:12:08;;;;;;;3.13;0.88;;;28.70;99.90;;;;;;5102242;28;20033;-51
2023/08/08 03:14:35;;;;;;;5.00;0.70;;;28.70;99.90;;;;;;5074690;28;20032;-51
2023/08/08 03:17:01;;;;;;;4.10;0.77;;;28.70;99.90;;;;;;5087538;28;20050;-51
2023/08/08 03:19:28;;;;;;;1.48;0.60;;;28.70;99.90;;;;;;5095150;28;20024;-54
2023/08/08 03:21:56;;;;;;;4.22;0.80;;;28.70;99.90;;;;;;5096630;28;20022;-55
2023/08/08 03:24:25;;;;;;;2.10;0.70;;;28.70;99.90;;;;;;5107166;28;20362;-53
2023/08/08 03:26:57;;;;;;;3.35;0.82;;;28.70;99.90;;;;;;5105584;28;20016;-51
2023/08/08 03:29:24;;;;;;;1.98;0.70;;;28.70;99.90;;;;;;5104791;28;20054;-50
2023/08/08 03:31:54;;;;;;;3.28;0.70;;;28.70;99.90;;;;;;5094756;28;20020;-54
2023/08/08 03:34:20;;;;;;;3.15;0.70;;;28.60;99.90;;;;;;5103690;28;20088;-51
2023/08/08 03:36:47;;;;;;;7.30;1.02;;;28.60;99.90;;;;;;5109962;28;20103;-51
2023/08/08 03:39:13;;;;;;;4.43;0.80;;;28.60;99.90;;;;;;5113614;28;20024;-51
2023/08/08 03:41:40;;;;;;;3.47;0.80;;;28.70;99.90;;;;;;5099088;28;20028;-53
2023/08/08 03:44:07;;;;;;;7.72;1.00;;;28.70;99.90;;;;;;5109718;28;20078;-52
2023/08/08 03:46:33;;;;;;;4.40;0.75;;;28.70;99.90;;;;;;5105481;28;20028;-48
2023/08/08 03:49:00;;;;;;;4.05;1.10;;;28.70;99.90;;;;;;5105058;28;20016;-58
2023/08/08 03:51:30;;;;;;;3.30;1.00;;;28.70;99.90;;;;;;5105212;28;20036;-56
2023/08/08 03:53:57;;;;;;;4.38;0.88;;;28.70;99.90;;;;;;5105166;28;20016;-54
2023/08/08 03:56:23;;;;;;;20.63;1.65;;;28.60;99.90;;;;;;5105059;28;20405;-53
2023/08/08 03:58:50;;;;;;;2.80;0.90;;;28.60;99.90;;;;;;5104752;28;20043;-53
2023/08/08 04:01:17;;;;;;;5.22;0.85;;;28.60;99.90;;;;;;5104500;28;20095;-52
2023/08/08 04:03:43;;;;;;;3.58;1.00;;;28.50;99.90;;;;;;5104338;28;20038;-53
2023/08/08 04:06:10;;;;;;;3.83;0.75;;;28.50;99.90;;;;;;5104626;28;20077;-54
2023/08/08 04:08:36;;;;;;;2.83;0.65;;;28.50;99.90;;;;;;5098219;28;20036;-57
2023/08/08 04:11:03;;;;;;;5.47;0.88;;;28.50;99.90;;;;;;5090036;28;20036;-47
2023/08/08 04:13:29;;;;;;;3.95;0.70;;;28.50;99.90;;;;;;5084190;28;20024;-55
2023/08/08 04:15:56;;;;;;;4.40;1.35;;;28.50;99.90;;;;;;5084075;28;20027;-51
2023/08/08 04:18:23;;;;;;;3.05;0.77;;;28.60;99.90;;;;;;5094040;28;20113;-53
2023/08/08 04:20:50;;;;;;;4.43;1.10;;;28.60;99.90;;;;;;5106270;28;20035;-51
2023/08/08 04:23:16;;;;;;;4.78;0.63;;;28.60;99.90;;;;;;5121618;28;20020;-53
2023/08/08 04:25:44;;;;;;;4.20;0.80;;;28.50;99.90;;;;;;5124475;28;20019;-49
2023/08/08 04:28:11;;;;;;;2.40;0.88;;;28.50;99.90;;;;;;5106684;28;20220;-59
2023/08/08 04:30:37;;;;;;;4.82;0.70;;;28.60;99.90;;;;;;5103957;28;20015;-54
2023/08/08 04:33:04;;;;;;;2.42;0.70;;;28.60;99.90;;;;;;5108018;28;20035;-54
2023/08/08 04:35:31;;;;;;;4.03;0.90;;;28.60;99.90;;;;;;5121594;28;20054;-52
2023/08/08 04:37:57;;;;;;;3.97;0.80;;;28.60;99.90;;;;;;5089919;28;20205;-53
2023/08/08 04:40:24;;;;;;;4.70;0.90;;;28.50;99.90;;;;;;5104567;28;20016;-53
2023/08/08 04:42:51;;;;;;;3.58;0.70;;;28.50;99.90;;;;;;5125349;28;20088;-53
2023/08/08 04:45:18;;;;;;;4.80;0.80;;;28.50;99.90;;;;;;5118859;28;20321;-50
2023/08/08 04:47:47;;;;;;;4.22;0.70;;;28.50;99.90;;;;;;5104421;28;20312;-56
2023/08/08 04:50:13;;;;;;;6.78;1.05;;;28.50;99.90;;;;;;5104123;28;20058;-55
2023/08/08 04:52:40;;;;;;;4.13;0.73;;;28.50;99.90;;;;;;5104385;28;20020;-54
2023/08/08 04:55:07;;;;;;;3.67;1.08;;;28.50;99.90;;;;;;5103960;28;20034;-54
2023/08/08 04:57:33;;;;;;;4.05;1.10;;;28.50;99.90;;;;;;5123436;28;20039;-55
2023/08/08 05:00:04;;;;;;;4.90;1.20;;;28.60;99.90;;;;;;5124404;28;20312;-59
2023/08/08 05:02:31;;;;;;;8.80;1.42;;;28.60;99.90;;;;;;5124595;28;20024;-54
2023/08/08 05:04:58;;;;;;;6.38;1.00;;;28.60;99.90;;;;;;5124173;28;20039;-52
2023/08/08 05:07:24;;;;;;;3.35;0.75;;;28.60;99.90;;;;;;5124721;28;20094;-52
2023/08/08 05:09:51;;;;;;;7.32;1.00;;;28.60;99.90;;;;;;5096908;28;20023;-54
2023/08/08 05:12:18;;;;;;;5.32;0.73;;;28.60;99.90;;;;;;5084057;28;20047;-53
2023/08/08 05:14:45;;;;;;;6.93;1.02;;;28.60;99.90;;;;;;5117040;28;20086;-51
2023/08/08 05:17:11;;;;;;;2.30;0.80;;;28.70;99.90;;;;;;5128656;28;20250;-53
2023/08/08 05:19:38;;;;;;;4.35;0.85;;;28.60;99.90;;;;;;5128260;28;20048;-52
2023/08/08 05:22:05;;;;;;;7.28;1.50;;;28.60;99.90;;;;;;5128546;28;20049;-56
2023/08/08 05:24:33;;;;;;;6.88;1.33;;;28.60;99.90;;;;;;5128106;28;20028;-53
2023/08/08 05:26:59;;;;;;;9.23;1.27;;;28.70;99.90;;;;;;5128294;28;20293;-56
2023/08/08 05:29:26;;;;;;;11.75;1.33;;;28.70;99.90;;;;;;5127437;28;20311;-52
2023/08/08 05:31:53;;;;;;;5.63;1.10;;;28.70;99.90;;;;;;5128256;28;20053;-55
2023/08/08 05:34:19;;;;;;;4.03;1.25;;;28.70;99.90;;;;;;5127702;28;20023;-51
2023/08/08 05:36:46;;;;;;;4.32;0.90;;;28.70;99.90;;;;;;5128007;28;20032;-52
2023/08/08 05:39:12;;;;;;;24.05;1.85;;;28.70;99.90;;;;;;5127949;28;20079;-54
2023/08/08 05:41:39;;;;;;;9.85;1.13;;;28.60;99.90;;;;;;5127783;28;20031;-49
2023/08/08 05:44:05;;;;;;;3.08;0.90;;;28.70;99.90;;;;;;5127521;28;20042;-53
2023/08/08 05:46:33;;;;;;;2.60;0.90;;;28.60;99.90;;;;;;5127833;28;20024;-50
2023/08/08 05:49:01;;;;;;;7.25;1.20;;;28.60;99.90;;;;;;5127455;28;20027;-50
2023/08/08 05:51:27;;;;;;;8.02;1.00;;;28.60;99.90;;;;;;5127584;28;20023;-52
2023/08/08 05:53:54;;;;;;;6.47;0.80;;;28.70;99.90;;;;;;5118598;28;20236;-51
2023/08/08 05:56:21;;;;;;;8.95;1.40;;;28.70;99.90;;;;;;5110840;28;20034;-53
2023/08/08 05:58:47;;;;;;;8.05;1.77;;;28.70;99.90;;;;;;5116584;28;20224;-56
2023/08/08 06:01:14;;;;;;;9.43;1.50;;;28.70;99.90;;;;;;5117247;28;20087;-55
2023/08/08 06:03:40;;;;;;;10.68;2.13;;;28.60;99.90;;;;;;5125573;28;20035;-52
2023/08/08 06:06:07;;;;;;;14.90;2.60;;;28.60;99.90;;;;;;5127289;28;20034;-51
2023/08/08 06:08:34;;;;;;;15.20;3.08;;;28.60;99.90;;;;;;5113505;28;20075;-50
2023/08/08 06:11:00;;;;;;;12.95;3.75;;;28.70;99.90;;;;;;5125484;28;20324;-52
2023/08/08 06:13:27;;;;;;;16.55;4.78;;;28.80;99.90;;;;;;5104486;28;20012;-55
2023/08/08 06:15:54;;;;;;;15.38;3.90;;;28.90;99.90;;;;;;5101389;28;20017;-53
2023/08/08 06:18:20;;;;;;;16.58;4.10;;;28.80;99.90;;;;;;5105067;28;20034;-51
2023/08/08 06:20:47;;;;;;;14.77;4.40;;;28.80;99.90;;;;;;5106736;28;20020;-50
2023/08/08 06:23:14;;;;;;;11.88;3.55;;;28.70;99.90;;;;;;5106574;28;20028;-53
2023/08/08 06:25:41;;;;;;;8.90;2.97;;;28.60;99.90;;;;;;5105540;28;20039;-56
2023/08/08 06:28:08;;;;;;;17.20;2.90;;;28.70;99.90;;;;;;5106050;28;20034;-51
2023/08/08 06:30:34;;;;;;;8.68;2.97;;;28.60;99.90;;;;;;5119460;28;20020;-48
2023/08/08 06:33:01;;;;;;;6.57;2.22;;;28.50;99.90;;;;;;5100145;28;20040;-53
2023/08/08 06:35:27;;;;;;;5.32;1.58;;;28.50;99.90;;;;;;5109576;28;20024;-46
2023/08/08 06:37:54;;;;;;;3.90;1.67;;;28.50;99.90;;;;;;5106408;28;20028;-48
2023/08/08 06:40:21;;;;;;;8.73;1.98;;;28.50;99.90;;;;;;5117790;28;20051;-50
2023/08/08 06:42:47;;;;;;;7.63;1.45;;;28.50;99.90;;;;;;5105759;28;20042;-48
2023/08/08 06:45:14;;;;;;;4.30;1.40;;;28.40;99.90;;;;;;5114240;28;20043;-48
2023/08/08 06:47:41;;;;;;;3.33;1.05;;;28.40;99.90;;;;;;5111627;28;20339;-55
2023/08/08 06:50:08;;;;;;;2.47;1.20;;;28.40;99.90;;;;;;5110866;28;20031;-47
2023/08/08 06:52:35;;;;;;;4.97;1.13;;;28.40;99.90;;;;;;5111176;28;20020;-49
2023/08/08 06:55:01;;;;;;;7.05;1.40;;;28.40;99.90;;;;;;5112112;28;20324;-51
2023/08/08 06:57:30;;;;;;;4.45;1.30;;;28.40;99.90;;;;;;5106111;28;20031;-46
2023/08/08 06:59:56;;;;;;;5.47;1.27;;;28.50;99.90;;;;;;5104685;28;20029;-48
2023/08/08 07:02:23;;;;;;;4.78;1.15;;;28.40;99.90;;;;;;5108896;28;20072;-51
2023/08/08 07:04:49;;;;;;;3.25;0.80;;;28.50;99.90;;;;;;5103247;28;20058;-49
2023/08/08 07:07:16;;;;;;;3.28;0.88;;;28.40;99.90;;;;;;5104547;28;20020;-48
2023/08/08 07:09:43;;;;;;;3.65;1.15;;;28.40;99.90;;;;;;5110544;28;20032;-45
2023/08/08 07:12:10;;;;;;;2.60;1.10;;;28.50;99.90;;;;;;5102513;28;20066;-52
2023/08/08 07:14:36;;;;;;;2.15;1.05;;;28.50;99.90;;;;;;5105148;28;20020;-47
2023/08/08 07:17:03;;;;;;;2.65;1.00;;;28.40;99.90;;;;;;5104686;28;20054;-48
2023/08/08 07:19:30;;;;;;;2.42;1.10;;;28.50;99.90;;;;;;5119019;28;20046;-48
2023/08/08 07:21:56;;;;;;;23.58;2.40;;;28.50;99.90;;;;;;5126169;28;20212;-47
2023/08/08 07:24:28;;;;;;;16.48;1.98;;;28.40;99.90;;;;;;5108940;28;20039;-44
2023/08/08 07:26:56;;;;;;;9.07;1.57;;;28.50;99.90;;;;;;5105130;28;20043;-47
2023/08/08 07:29:23;;;;;;;5.88;1.27;;;28.50;99.90;;;;;;5105631;28;20477;-51
2023/08/08 07:31:51;;;;;;;2.92;1.35;;;28.40;99.90;;;;;;5105536;28;20117;-53
2023/08/08 07:34:18;;;;;;;3.03;1.05;;;28.40;99.90;;;;;;5086914;28;20019;-50
2023/08/08 07:36:45;;;;;;;3.65;1.15;;;28.40;99.90;;;;;;5103876;28;20039;-51
2023/08/08 07:39:12;;;;;;;3.00;1.00;;;28.40;99.90;;;;;;5106800;28;20324;-49
2023/08/08 07:41:38;;;;;;;11.05;1.08;;;28.40;99.90;;;;;;5122781;28;20035;-46
2023/08/08 07:44:05;;;;;;;1.88;0.75;;;28.40;99.90;;;;;;5109188;28;20035;-52
2023/08/08 07:46:32;;;;;;;1.98;0.80;;;28.40;99.90;;;;;;5105126;28;20296;-54
2023/08/08 07:49:03;;;;;;;3.83;1.00;;;28.40;99.90;;;;;;5104137;28;20020;-50
2023/08/08 07:51:30;;;;;;;3.03;1.02;;;28.40;99.90;;;;;;5105250;28;20106;-46
2023/08/08 07:53:58;;;;;;;2.25;0.73;;;28.40;99.90;;;;;;5112810;28;20024;-46
2023/08/08 07:56:24;;;;;;;1.77;0.85;;;28.40;99.90;;;;;;5113622;28;20207;-50
2023/08/08 07:58:53;;;;;;;2.88;1.00;;;28.40;99.90;;;;;;5115068;28;20019;-47
2023/08/08 08:01:19;;;;;;;1.98;0.98;;;28.40;99.90;;;;;;5104942;28;20118;-48
2023/08/08 08:03:46;;;;;;;2.30;0.82;;;28.40;99.90;;;;;;5104301;28;20082;-48
2023/08/08 08:06:13;;;;;;;1.80;0.85;;;28.40;99.90;;;;;;5104907;28;20040;-54
2023/08/08 08:08:39;;;;;;;2.17;0.73;;;28.30;99.90;;;;;;5103990;28;20035;-52
2023/08/08 08:11:06;;;;;;;1.90;0.82;;;28.30;99.90;;;;;;5103421;28;20331;-54
2023/08/08 08:13:33;;;;;;;2.90;0.82;;;28.40;99.90;;;;;;5088496;28;20012;-56
2023/08/08 08:15:59;;;;;;;3.50;1.20;;;28.40;99.90;;;;;;5106750;28;20076;-60
2023/08/08 08:18:26;;;;;;;6.20;0.90;;;28.30;99.90;;;;;;5124643;28;20028;-53
2023/08/08 08:20:53;;;;;;;7.00;1.23;;;28.40;99.90;;;;;;5124790;28;20300;-52
2023/08/08 08:23:19;;;;;;;2.20;1.00;;;28.40;99.90;;;;;;5124801;28;20032;-49
2023/08/08 08:25:46;;;;;;;3.38;1.10;;;28.40;99.90;;;;;;5124715;28;20019;-50
2023/08/08 08:28:13;;;;;;;2.95;0.70;;;28.30;99.90;;;;;;5124708;28;20219;-52
2023/08/08 08:30:40;;;;;;;1.63;0.75;;;28.30;99.90;;;;;;5124714;28;20324;-48
2023/08/08 08:33:07;;;;;;;4.35;0.85;;;28.30;99.90;;;;;;5124381;28;20023;-49
2023/08/08 08:35:37;;;;;;;2.50;1.00;;;28.30;99.90;;;;;;5124778;28;20026;-55
2023/08/08 08:38:04;;;;;;;2.58;0.90;;;28.40;99.90;;;;;;5110360;28;20058;-52
2023/08/08 08:40:37;;;;;;;2.83;0.80;;;28.30;99.90;;;;;;5104026;28;20320;-54
2023/08/08 08:43:07;;;;;;;4.20;1.05;;;28.30;99.90;;;;;;5104584;28;20039;-51
2023/08/08 08:45:38;;;;;;;1.30;0.70;;;28.30;99.90;;;;;;5103930;28;20312;-50
2023/08/08 08:48:11;;;;;;;1.77;0.90;;;28.30;99.90;;;;;;5106244;28;20050;-51
2023/08/08 08:50:39;;;;;;;3.92;0.77;;;28.30;99.90;;;;;;5110841;28;20250;-54
2023/08/08 08:53:07;;;;;;;2.45;0.95;;;28.30;99.90;;;;;;5110714;28;20032;-54
2023/08/08 08:55:34;;;;;;;7.20;1.15;;;28.30;99.90;;;;;;5111068;28;20016;-54
2023/08/08 08:58:02;;;;;;;2.75;0.93;;;28.30;99.90;;;;;;5111313;28;20238;-51
2023/08/08 09:00:30;;;;;;;20.02;1.23;;;28.20;99.90;;;;;;5110587;28;20040;-55
2023/08/08 09:02:56;;;;;;;4.60;1.00;;;28.20;99.90;;;;;;5111211;28;20035;-55
2023/08/08 09:05:26;;;;;;;1.15;0.80;;;28.20;99.90;;;;;;5110745;28;20024;-50
2023/08/08 09:07:52;;;;;;;3.00;1.00;;;28.20;99.90;;;;;;5112177;28;20189;-49
2023/08/08 09:10:19;;;;;;;2.03;1.13;;;28.20;99.90;;;;;;5131266;28;20088;-50
2023/08/08 09:12:47;;;;;;;2.85;1.05;;;28.20;99.90;;;;;;5131177;28;20019;-52
2023/08/08 09:15:13;;;;;;;2.05;0.93;;;28.20;99.90;;;;;;5118237;28;20032;-49
2023/08/08 09:17:44;;;;;;;3.03;0.90;;;28.20;99.90;;;;;;5097950;28;20032;-48
2023/08/08 09:20:16;;;;;;;3.80;0.80;;;28.20;99.90;;;;;;5101208;28;20020;-52
2023/08/08 09:22:43;;;;;;;3.17;0.93;;;28.20;99.90;;;;;;5091191;28;20321;-49
2023/08/08 09:25:10;;;;;;;2.03;0.63;;;28.20;99.90;;;;;;5118589;28;20036;-50
2023/08/08 09:27:36;;;;;;;1.90;0.50;;;28.10;99.90;;;;;;5129916;28;20027;-50
2023/08/08 09:30:04;;;;;;;10.57;1.10;;;28.10;99.90;;;;;;5129418;28;20181;-58
2023/08/08 09:32:32;;;;;;;1.10;0.70;;;28.10;99.90;;;;;;5126304;28;20024;-47
2023/08/08 09:35:00;;;;;;;2.70;0.60;;;28.10;99.90;;;;;;5130790;28;20102;-52
2023/08/08 09:37:29;;;;;;;2.42;0.60;;;28.00;99.90;;;;;;5131115;28;20300;-50
2023/08/08 09:39:59;;;;;;;2.33;0.68;;;28.10;99.90;;;;;;5120345;28;20121;-52
2023/08/08 09:42:33;;;;;;;2.28;0.65;;;28.00;99.90;;;;;;5111244;28;20036;-53
2023/08/08 09:45:00;;;;;;;1.77;0.77;;;28.00;99.90;;;;;;5125109;28;20057;-48
2023/08/08 09:47:31;;;;;;;4.97;0.90;;;28.00;99.90;;;;;;5131138;28;20042;-49
2023/08/08 09:50:04;;;;;;;4.18;0.70;;;28.00;99.90;;;;;;5112867;28;20019;-46
2023/08/08 09:52:32;;;;;;;2.88;0.82;;;28.00;99.90;;;;;;5110931;28;20028;-51
2023/08/08 09:55:00;;;;;;;2.05;0.52;;;28.00;99.90;;;;;;5124954;28;20047;-51
2023/08/08 09:57:27;;;;;;;3.13;0.70;;;28.00;99.90;;;;;;5130525;28;20034;-52
2023/08/08 09:59:55;;;;;;;2.13;0.65;;;28.00;99.90;;;;;;5115147;28;20198;-52
2023/08/08 10:02:22;;;;;;;2.35;0.52;;;28.00;99.90;;;;;;5116849;28;20054;-53
2023/08/08 10:04:48;;;;;;;2.22;0.65;;;27.90;99.90;;;;;;5127274;28;20083;-53
2023/08/08 10:07:15;;;;;;;2.90;0.55;;;27.90;99.90;;;;;;5127705;28;20027;-53
2023/08/08 10:09:42;;;;;;;1.63;0.75;;;28.00;99.90;;;;;;5115431;28;20016;-47
2023/08/08 10:12:12;;;;;;;3.67;1.00;;;27.90;99.90;;;;;;5107048;28;20065;-45
2023/08/08 10:14:43;;;;;;;2.50;1.40;;;27.90;99.90;;;;;;5106861;28;20058;-51
2023/08/08 10:17:14;;;;;;;5.00;1.00;;;27.90;99.90;;;;;;5106992;28;20032;-53
2023/08/08 10:19:49;;;;;;;4.40;1.10;;;27.90;99.90;;;;;;5106712;28;20024;-51
2023/08/08 10:22:23;;;;;;;3.08;1.33;;;27.90;99.90;;;;;;5085267;28;20038;-50
2023/08/08 10:24:53;;;;;;;6.57;1.55;;;27.90;99.90;;;;;;5086349;28;20043;-48
2023/08/08 10:27:34;;;;;;;2.38;1.40;;;27.90;99.90;;;;;;5086652;28;20020;-50
2023/08/08 10:30:10;;;;;;;3.75;1.40;;;27.90;99.90;;;;;;5086079;28;20035;-49
2023/08/08 10:32:50;;;;;;;4.75;1.50;;;27.90;99.90;;;;;;5069151;28;20021;-53
2023/08/08 10:35:17;;;;;;;5.47;1.25;;;27.90;99.90;;;;;;5085924;28;20035;-53
2023/08/08 10:37:54;;;;;;;2.17;1.15;;;27.90;99.90;;;;;;5086450;28;20029;-47
2023/08/08 10:40:21;;;;;;;3.97;1.10;;;27.90;99.90;;;;;;5085693;28;20039;-50
2023/08/08 10:42:48;;;;;;;4.10;1.00;;;27.80;99.90;;;;;;5068059;28;20031;-57
2023/08/08 10:45:16;;;;;;;5.65;1.15;;;27.80;99.90;;;;;;5088512;28;20044;-48
2023/08/08 10:47:46;;;;;;;6.78;0.98;;;27.90;99.90;;;;;;5121122;28;20030;-56
2023/08/08 10:50:21;;;;;;;4.90;1.65;;;27.90;99.90;;;;;;5126588;28;20034;-52
2023/08/08 10:52:54;;;;;;;6.72;1.48;;;27.80;99.90;;;;;;5126886;28;20039;-53
2023/08/08 10:55:26;;;;;;;10.35;1.95;;;27.90;99.90;;;;;;5126341;28;20011;-47
2023/08/08 10:57:56;;;;;;;6.05;1.50;;;27.90;99.90;;;;;;5126906;28;20043;-58
2023/08/08 11:00:27;;;;;;;7.47;1.70;;;27.90;99.90;;;;;;5126611;28;20046;-51
2023/08/08 11:02:55;;;;;;;7.40;1.70;;;27.90;99.90;;;;;;5126960;28;20034;-52
2023/08/08 11:05:23;;;;;;;13.52;2.40;;;27.80;99.90;;;;;;5127605;28;20350;-51
2023/08/08 11:07:50;;;;;;;13.45;2.20;;;27.90;99.90;;;;;;5126552;28;20024;-50
2023/08/08 11:10:17;;;;;;;7.70;2.13;;;27.80;99.90;;;;;;5126260;28;20023;-48
2023/08/08 11:13:10;;;;;;;5.90;1.75;;;27.80;99.90;;;;;;5126412;28;20059;-45
2023/08/08 11:15:42;;;;;;;7.93;2.13;;;27.80;99.90;;;;;;5126025;28;20215;-49
2023/08/08 11:18:09;;;;;;;5.50;1.60;;;27.80;99.90;;;;;;5116120;28;20087;-50
2023/08/08 11:20:37;;;;;;;14.90;5.32;;;27.90;99.90;;;;;;5108142;28;20072;-51
2023/08/08 11:23:10;;;;;;;10.27;5.85;;;27.90;99.90;;;;;;5126302;28;20039;-45
2023/08/08 11:25:39;;;;;;;13.30;4.97;;;28.00;99.90;;;;;;5119899;28;20047;-47
2023/08/08 11:28:06;;;;;;;10.98;4.45;;;28.00;99.90;;;;;;5105531;28;20043;-51
2023/08/08 11:30:37;;;;;;;8.30;3.58;;;28.00;99.90;;;;;;5105497;28;20023;-52
2023/08/08 11:33:04;;;;;;;10.93;3.40;;;28.00;99.90;;;;;;5106244;28;20028;-59
2023/08/08 11:35:31;;;;;;;9.07;2.72;;;28.10;99.90;;;;;;5105426;28;20031;-51
2023/08/08 11:37:59;;;;;;;14.98;2.28;;;28.20;99.90;;;;;;5101858;28;20024;-49
2023/08/08 11:40:28;;;;;;;5.78;1.92;;;28.30;99.90;;;;;;5091693;28;20021;-53
2023/08/08 11:42:56;;;;;;;10.27;2.95;;;28.20;99.90;;;;;;5096794;28;20039;-52
2023/08/08 11:45:24;;;;;;;6.95;1.75;;;28.30;99.90;;;;;;5114161;28;20040;-53
2023/08/08 11:47:56;;;;;;;3.90;1.30;;;28.30;99.90;;;;;;5116848;28;20028;-53
2023/08/08 11:50:24;;;;;;;2.95;1.20;;;28.30;99.90;;;;;;5125554;28;20042;-53
2023/08/08 11:52:56;;;;;;;8.55;1.77;;;28.30;99.90;;;;;;5124936;28;20015;-53
2023/08/08 11:55:28;;;;;;;9.77;2.80;;;28.60;99.90;;;;;;5113032;28;20035;-52
2023/08/08 11:57:59;;;;;;;4.90;2.50;;;28.90;99.90;;;;;;5111113;28;20087;-48
2023/08/08 12:00:30;;;;;;;4.72;1.98;;;29.00;99.90;;;;;;5107462;28;20024;-50
2023/08/08 12:02:58;;;;;;;5.65;2.17;;;29.00;99.90;;;;;;5105610;28;20031;-48
2023/08/08 12:05:25;;;;;;;3.50;1.30;;;29.10;99.90;;;;;;5103253;28;20036;-48
2023/08/08 12:07:52;;;;;;;7.15;1.35;;;29.10;99.90;;;;;;5104650;28;20289;-48
2023/08/08 12:10:21;;;;;;;5.53;1.30;;;29.10;99.90;;;;;;5104795;28;20083;-51
2023/08/08 12:12:54;;;;;;;2.58;0.93;;;29.10;99.90;;;;;;5086429;28;20024;-51
2023/08/08 12:15:21;;;;;;;4.95;1.20;;;29.20;99.90;;;;;;5104813;28;20035;-54
2023/08/08 12:17:48;;;;;;;4.00;0.90;;;29.20;99.90;;;;;;5105109;28;20300;-48
2023/08/08 12:20:15;;;;;;;6.03;1.38;;;29.20;99.90;;;;;;5105024;28;20058;-47
2023/08/08 12:22:42;;;;;;;10.48;1.13;;;29.20;99.90;;;;;;5089848;28;20028;-50
2023/08/08 12:25:12;;;;;;;2.80;0.98;;;29.20;99.90;;;;;;5107651;28;20036;-47
2023/08/08 12:27:39;;;;;;;2.40;0.80;;;29.20;99.90;;;;;;5107220;28;20022;-50
2023/08/08 12:30:13;;;;;;;2.80;0.80;;;29.20;99.90;;;;;;5106982;28;20076;-46
2023/08/08 12:32:39;;;;;;;4.50;0.90;;;29.30;99.90;;;;;;5106809;28;20031;-50
2023/08/08 12:35:07;;;;;;;3.83;0.90;;;29.20;99.90;;;;;;5107078;28;20039;-46
2023/08/08 12:37:34;;;;;;;8.75;1.63;;;29.20;99.90;;;;;;5089603;28;20112;-47
2023/08/08 12:40:02;;;;;;;3.10;1.05;;;29.20;99.90;;;;;;5105060;28;20085;-48
2023/08/08 12:42:29;;;;;;;5.97;1.20;;;29.30;99.90;;;;;;5104592;28;20069;-48
2023/08/08 12:44:55;;;;;;;3.70;1.55;;;29.30;99.90;;;;;;5104402;28;20115;-48
2023/08/08 12:47:22;;;;;;;10.27;1.48;;;29.40;99.90;;;;;;5104373;28;20012;-50
2023/08/08 12:49:49;;;;;;;5.15;1.30;;;29.40;99.90;;;;;;5104066;28;20022;-48